sensor_id;sensor_type;location;lat;lon;timestamp;temperature;humidity
52209;DHT22;38507;53.132;6.394;2022-07-29T00:01:46;15.10;99.90
52209;DHT22;38507;53.132;6.394;2022-07-29T00:04:11;15.10;99.90
52209;DHT22;38507;53.132;6.394;2022-07-29T00:06:37;15.20;99.90
52209;DHT22;38507;53.132;6.394;2022-07-29T00:09:03;15.30;99.90
52209;DHT22;38507;53.132;6.394;2022-07-29T00:11:29;15.20;99.90
52209;DHT22;38507;53.132;6.394;2022-07-29T00:13:54;15.20;99.90
52209;DHT22;38507;53.132;6.394;2022-07-29T00:16:20;15.40;99.90
52209;DHT22;38507;53.132;6.394;2022-07-29T00:18:45;15.20;99.90
52209;DHT22;38507;53.132;6.394;2022-07-29T00:21:11;15.20;99.90
52209;DHT22;38507;53.132;6.394;2022-07-29T00:23:37;15.30;99.90
52209;DHT22;38507;53.132;6.394;2022-07-29T00:26:04;15.20;99.90
52209;DHT22;38507;53.132;6.394;2022-07-29T00:28:29;15.20;99.90
52209;DHT22;38507;53.132;6.394;2022-07-29T00:30:55;15.20;99.90
52209;DHT22;38507;53.132;6.394;2022-07-29T00:33:20;15.20;99.90
52209;DHT22;38507;53.132;6.394;2022-07-29T00:35:47;15.20;99.90
52209;DHT22;38507;53.132;6.394;2022-07-29T00:38:17;15.20;99.90
52209;DHT22;38507;53.132;6.394;2022-07-29T00:40:44;15.20;99.90
52209;DHT22;38507;53.132;6.394;2022-07-29T00:43:11;15.20;99.90
52209;DHT22;38507;53.132;6.394;2022-07-29T00:45:37;15.20;99.90
52209;DHT22;38507;53.132;6.394;2022-07-29T00:48:03;15.30;99.90
52209;DHT22;38507;53.132;6.394;2022-07-29T00:50:31;15.20;99.90
52209;DHT22;38507;53.132;6.394;2022-07-29T00:52:57;15.20;99.90
52209;DHT22;38507;53.132;6.394;2022-07-29T00:55:23;15.20;99.90
52209;DHT22;38507;53.132;6.394;2022-07-29T00:57:49;15.20;99.90
52209;DHT22;38507;53.132;6.394;2022-07-29T01:00:20;15.20;99.90
52209;DHT22;38507;53.132;6.394;2022-07-29T01:02:47;15.20;99.90
52209;DHT22;38507;53.132;6.394;2022-07-29T01:05:14;15.20;99.90
52209;DHT22;38507;53.132;6.394;2022-07-29T01:07:41;15.20;99.90
52209;DHT22;38507;53.132;6.394;2022-07-29T01:10:09;15.30;99.90
52209;DHT22;38507;53.132;6.394;2022-07-29T01:12:36;15.20;99.90
52209;DHT22;38507;53.132;6.394;2022-07-29T01:15:04;15.20;99.90
52209;DHT22;38507;53.132;6.394;2022-07-29T01:20:38;15.20;99.90
52209;DHT22;38507;53.132;6.394;2022-07-29T01:23:59;15.20;99.90
52209;DHT22;38507;53.132;6.394;2022-07-29T01:26:41;15.10;99.90
52209;DHT22;38507;53.132;6.394;2022-07-29T01:32:13;15.10;99.90
52209;DHT22;38507;53.132;6.394;2022-07-29T01:35:02;15.00;99.90
52209;DHT22;38507;53.132;6.394;2022-07-29T01:37:33;15.10;99.90
52209;DHT22;38507;53.132;6.394;2022-07-29T01:40:03;15.20;99.90
52209;DHT22;38507;53.132;6.394;2022-07-29T01:42:35;15.00;99.90
52209;DHT22;38507;53.132;6.394;2022-07-29T01:45:08;15.00;99.90
52209;DHT22;38507;53.132;6.394;2022-07-29T01:47:43;15.00;99.90
52209;DHT22;38507;53.132;6.394;2022-07-29T01:50:13;15.00;99.90
52209;DHT22;38507;53.132;6.394;2022-07-29T01:52:49;15.00;99.90
52209;DHT22;38507;53.132;6.394;2022-07-29T01:55:20;14.90;99.90
52209;DHT22;38507;53.132;6.394;2022-07-29T01:57:49;14.90;99.90
52209;DHT22;38507;53.132;6.394;2022-07-29T02:00:15;14.90;99.90
52209;DHT22;38507;53.132;6.394;2022-07-29T02:02:44;14.90;99.90
52209;DHT22;38507;53.132;6.394;2022-07-29T02:05:13;14.90;99.90
52209;DHT22;38507;53.132;6.394;2022-07-29T02:07:43;15.00;99.90
52209;DHT22;38507;53.132;6.394;2022-07-29T02:10:10;14.80;99.90
52209;DHT22;38507;53.132;6.394;2022-07-29T02:12:39;14.80;99.90
52209;DHT22;38507;53.132;6.394;2022-07-29T02:15:06;14.80;99.90
52209;DHT22;38507;53.132;6.394;2022-07-29T02:17:41;14.80;99.90
52209;DHT22;38507;53.132;6.394;2022-07-29T02:20:09;14.80;99.90
52209;DHT22;38507;53.132;6.394;2022-07-29T02:22:38;14.80;99.90
52209;DHT22;38507;53.132;6.394;2022-07-29T02:25:06;14.70;99.90
52209;DHT22;38507;53.132;6.394;2022-07-29T02:27:34;14.80;99.90
52209;DHT22;38507;53.132;6.394;2022-07-29T02:30:02;14.80;99.90
52209;DHT22;38507;53.132;6.394;2022-07-29T02:32:29;15.00;99.90
52209;DHT22;38507;53.132;6.394;2022-07-29T02:34:57;14.80;99.90
52209;DHT22;38507;53.132;6.394;2022-07-29T02:37:24;14.90;99.90
52209;DHT22;38507;53.132;6.394;2022-07-29T02:39:52;14.80;99.90
52209;DHT22;38507;53.132;6.394;2022-07-29T02:42:21;14.80;99.90
52209;DHT22;38507;53.132;6.394;2022-07-29T02:44:48;14.80;99.90
52209;DHT22;38507;53.132;6.394;2022-07-29T02:47:24;14.70;99.90
52209;DHT22;38507;53.132;6.394;2022-07-29T02:50:12;14.80;99.90
52209;DHT22;38507;53.132;6.394;2022-07-29T02:52:58;14.80;99.90
52209;DHT22;38507;53.132;6.394;2022-07-29T02:55:34;14.80;99.90
52209;DHT22;38507;53.132;6.394;2022-07-29T02:58:03;14.80;99.90
52209;DHT22;38507;53.132;6.394;2022-07-29T03:00:33;14.80;99.90
52209;DHT22;38507;53.132;6.394;2022-07-29T03:03:04;14.80;99.90
52209;DHT22;38507;53.132;6.394;2022-07-29T03:05:31;14.90;99.90
52209;DHT22;38507;53.132;6.394;2022-07-29T03:08:01;14.80;99.90
52209;DHT22;38507;53.132;6.394;2022-07-29T03:10:28;14.90;99.90
52209;DHT22;38507;53.132;6.394;2022-07-29T03:12:55;14.80;99.90
52209;DHT22;38507;53.132;6.394;2022-07-29T03:15:22;14.80;99.90
52209;DHT22;38507;53.132;6.394;2022-07-29T03:17:48;14.80;99.90
52209;DHT22;38507;53.132;6.394;2022-07-29T03:20:14;14.80;99.90
52209;DHT22;38507;53.132;6.394;2022-07-29T03:22:41;14.80;99.90
52209;DHT22;38507;53.132;6.394;2022-07-29T03:25:17;14.90;99.90
52209;DHT22;38507;53.132;6.394;2022-07-29T03:27:44;14.90;99.90
52209;DHT22;38507;53.132;6.394;2022-07-29T03:30:11;15.00;99.90
52209;DHT22;38507;53.132;6.394;2022-07-29T03:32:37;14.90;99.90
52209;DHT22;38507;53.132;6.394;2022-07-29T03:35:03;14.90;99.90
52209;DHT22;38507;53.132;6.394;2022-07-29T03:37:30;14.90;99.90
52209;DHT22;38507;53.132;6.394;2022-07-29T03:39:57;14.90;99.90
52209;DHT22;38507;53.132;6.394;2022-07-29T03:42:26;14.90;99.90
52209;DHT22;38507;53.132;6.394;2022-07-29T03:44:54;14.90;99.90
52209;DHT22;38507;53.132;6.394;2022-07-29T03:47:23;15.00;99.90
52209;DHT22;38507;53.132;6.394;2022-07-29T03:49:52;14.90;99.90
52209;DHT22;38507;53.132;6.394;2022-07-29T03:52:20;14.90;99.90
52209;DHT22;38507;53.132;6.394;2022-07-29T03:54:46;14.90;99.90
52209;DHT22;38507;53.132;6.394;2022-07-29T03:57:13;14.90;99.90
52209;DHT22;38507;53.132;6.394;2022-07-29T03:59:40;14.90;99.90
52209;DHT22;38507;53.132;6.394;2022-07-29T04:02:09;15.00;99.90
52209;DHT22;38507;53.132;6.394;2022-07-29T04:04:36;15.00;99.90
52209;DHT22;38507;53.132;6.394;2022-07-29T04:07:03;14.90;99.90
52209;DHT22;38507;53.132;6.394;2022-07-29T04:09:29;14.90;99.90
52209;DHT22;38507;53.132;6.394;2022-07-29T04:11:55;14.90;99.90
52209;DHT22;38507;53.132;6.394;2022-07-29T04:14:21;15.00;99.90
52209;DHT22;38507;53.132;6.394;2022-07-29T04:16:46;14.90;99.90
52209;DHT22;38507;53.132;6.394;2022-07-29T04:19:12;14.90;99.90
52209;DHT22;38507;53.132;6.394;2022-07-29T04:21:41;14.80;99.90
52209;DHT22;38507;53.132;6.394;2022-07-29T04:24:07;14.90;99.90
52209;DHT22;38507;53.132;6.394;2022-07-29T04:26:34;14.80;99.90
52209;DHT22;38507;53.132;6.394;2022-07-29T04:29:00;14.80;99.90
52209;DHT22;38507;53.132;6.394;2022-07-29T04:31:26;14.80;99.90
52209;DHT22;38507;53.132;6.394;2022-07-29T04:33:52;15.00;99.90
52209;DHT22;38507;53.132;6.394;2022-07-29T04:36:17;14.90;99.90
52209;DHT22;38507;53.132;6.394;2022-07-29T04:38:43;14.90;99.90
52209;DHT22;38507;53.132;6.394;2022-07-29T04:41:08;14.90;99.90
52209;DHT22;38507;53.132;6.394;2022-07-29T04:43:35;14.90;99.90
52209;DHT22;38507;53.132;6.394;2022-07-29T04:46:01;15.20;99.90
52209;DHT22;38507;53.132;6.394;2022-07-29T04:48:27;14.90;99.90
52209;DHT22;38507;53.132;6.394;2022-07-29T04:50:53;14.90;99.90
52209;DHT22;38507;53.132;6.394;2022-07-29T04:53:18;15.10;99.90
52209;DHT22;38507;53.132;6.394;2022-07-29T04:55:44;14.90;99.90
52209;DHT22;38507;53.132;6.394;2022-07-29T04:58:10;15.00;99.90
52209;DHT22;38507;53.132;6.394;2022-07-29T05:00:37;15.20;99.90
52209;DHT22;38507;53.132;6.394;2022-07-29T05:03:03;15.00;99.90
52209;DHT22;38507;53.132;6.394;2022-07-29T05:05:29;15.20;99.90
52209;DHT22;38507;53.132;6.394;2022-07-29T05:07:54;15.00;99.90
52209;DHT22;38507;53.132;6.394;2022-07-29T05:10:20;15.10;99.90
52209;DHT22;38507;53.132;6.394;2022-07-29T05:12:46;15.10;99.90
52209;DHT22;38507;53.132;6.394;2022-07-29T05:15:11;15.20;99.90
52209;DHT22;38507;53.132;6.394;2022-07-29T05:17:37;15.20;99.90
52209;DHT22;38507;53.132;6.394;2022-07-29T05:20:04;15.20;99.90
52209;DHT22;38507;53.132;6.394;2022-07-29T05:22:30;15.20;99.90
52209;DHT22;38507;53.132;6.394;2022-07-29T05:24:55;15.20;99.90
52209;DHT22;38507;53.132;6.394;2022-07-29T05:27:21;15.70;99.90
52209;DHT22;38507;53.132;6.394;2022-07-29T05:29:47;15.30;99.90
52209;DHT22;38507;53.132;6.394;2022-07-29T05:32:13;15.40;99.90
52209;DHT22;38507;53.132;6.394;2022-07-29T05:34:39;15.60;99.90
52209;DHT22;38507;53.132;6.394;2022-07-29T05:37:05;15.40;99.90
52209;DHT22;38507;53.132;6.394;2022-07-29T05:39:31;15.50;99.90
52209;DHT22;38507;53.132;6.394;2022-07-29T05:41:57;15.50;99.90
52209;DHT22;38507;53.132;6.394;2022-07-29T05:44:22;15.50;99.90
52209;DHT22;38507;53.132;6.394;2022-07-29T05:46:48;15.50;99.90
52209;DHT22;38507;53.132;6.394;2022-07-29T05:49:13;15.70;99.90
52209;DHT22;38507;53.132;6.394;2022-07-29T05:51:39;15.60;99.90
52209;DHT22;38507;53.132;6.394;2022-07-29T05:54:05;15.70;99.90
52209;DHT22;38507;53.132;6.394;2022-07-29T05:56:31;15.70;99.90
52209;DHT22;38507;53.132;6.394;2022-07-29T05:58:56;15.80;99.90
52209;DHT22;38507;53.132;6.394;2022-07-29T06:01:22;15.80;99.90
52209;DHT22;38507;53.132;6.394;2022-07-29T06:03:48;15.80;99.90
52209;DHT22;38507;53.132;6.394;2022-07-29T06:06:13;15.90;99.90
52209;DHT22;38507;53.132;6.394;2022-07-29T06:08:39;16.00;99.90
52209;DHT22;38507;53.132;6.394;2022-07-29T06:11:06;16.00;99.90
52209;DHT22;38507;53.132;6.394;2022-07-29T06:13:32;16.10;99.90
52209;DHT22;38507;53.132;6.394;2022-07-29T06:15:58;16.10;99.90
52209;DHT22;38507;53.132;6.394;2022-07-29T06:18:23;16.20;99.90
52209;DHT22;38507;53.132;6.394;2022-07-29T06:20:53;16.20;99.90
52209;DHT22;38507;53.132;6.394;2022-07-29T06:23:19;16.30;99.90
52209;DHT22;38507;53.132;6.394;2022-07-29T06:25:45;16.40;99.90
52209;DHT22;38507;53.132;6.394;2022-07-29T06:28:11;16.60;99.90
52209;DHT22;38507;53.132;6.394;2022-07-29T06:30:38;16.50;99.90
52209;DHT22;38507;53.132;6.394;2022-07-29T06:33:04;16.60;99.90
52209;DHT22;38507;53.132;6.394;2022-07-29T06:35:32;16.70;99.90
52209;DHT22;38507;53.132;6.394;2022-07-29T06:37:58;16.80;99.90
52209;DHT22;38507;53.132;6.394;2022-07-29T06:40:23;16.80;99.90
52209;DHT22;38507;53.132;6.394;2022-07-29T06:43:08;16.90;99.90
52209;DHT22;38507;53.132;6.394;2022-07-29T06:45:34;16.90;99.90
52209;DHT22;38507;53.132;6.394;2022-07-29T06:47:59;17.10;99.90
52209;DHT22;38507;53.132;6.394;2022-07-29T06:50:25;17.10;99.90
52209;DHT22;38507;53.132;6.394;2022-07-29T06:52:52;17.10;99.90
52209;DHT22;38507;53.132;6.394;2022-07-29T06:55:17;17.10;99.90
52209;DHT22;38507;53.132;6.394;2022-07-29T06:57:45;17.20;99.90
52209;DHT22;38507;53.132;6.394;2022-07-29T07:00:11;17.20;99.90
52209;DHT22;38507;53.132;6.394;2022-07-29T07:02:37;17.30;99.90
52209;DHT22;38507;53.132;6.394;2022-07-29T07:05:02;17.40;99.90
52209;DHT22;38507;53.132;6.394;2022-07-29T07:07:28;17.50;99.90
52209;DHT22;38507;53.132;6.394;2022-07-29T07:09:54;17.50;99.90
52209;DHT22;38507;53.132;6.394;2022-07-29T07:12:19;17.60;99.90
52209;DHT22;38507;53.132;6.394;2022-07-29T07:14:45;17.70;99.90
52209;DHT22;38507;53.132;6.394;2022-07-29T07:17:11;17.70;99.90
52209;DHT22;38507;53.132;6.394;2022-07-29T07:19:36;17.90;99.90
52209;DHT22;38507;53.132;6.394;2022-07-29T07:22:02;17.90;99.90
52209;DHT22;38507;53.132;6.394;2022-07-29T07:24:27;17.80;99.90
52209;DHT22;38507;53.132;6.394;2022-07-29T07:26:53;17.90;99.90
52209;DHT22;38507;53.132;6.394;2022-07-29T07:29:19;17.90;99.90
52209;DHT22;38507;53.132;6.394;2022-07-29T07:31:44;18.00;99.90
52209;DHT22;38507;53.132;6.394;2022-07-29T07:34:10;18.00;99.90
52209;DHT22;38507;53.132;6.394;2022-07-29T07:36:36;18.10;99.90
52209;DHT22;38507;53.132;6.394;2022-07-29T07:39:02;18.10;99.90
52209;DHT22;38507;53.132;6.394;2022-07-29T07:41:28;18.10;99.90
52209;DHT22;38507;53.132;6.394;2022-07-29T07:43:54;18.10;99.90
52209;DHT22;38507;53.132;6.394;2022-07-29T07:46:19;18.20;99.90
52209;DHT22;38507;53.132;6.394;2022-07-29T07:48:45;18.20;99.90
52209;DHT22;38507;53.132;6.394;2022-07-29T07:51:11;18.20;99.90
52209;DHT22;38507;53.132;6.394;2022-07-29T07:53:37;18.20;99.90
52209;DHT22;38507;53.132;6.394;2022-07-29T07:56:02;18.20;99.90
52209;DHT22;38507;53.132;6.394;2022-07-29T07:58:29;18.20;99.90
52209;DHT22;38507;53.132;6.394;2022-07-29T08:00:55;18.10;99.90
52209;DHT22;38507;53.132;6.394;2022-07-29T08:03:20;18.10;99.90
52209;DHT22;38507;53.132;6.394;2022-07-29T08:05:46;18.10;99.90
52209;DHT22;38507;53.132;6.394;2022-07-29T08:08:12;18.10;99.90
52209;DHT22;38507;53.132;6.394;2022-07-29T08:10:38;18.20;99.90
52209;DHT22;38507;53.132;6.394;2022-07-29T08:13:20;18.30;99.90
52209;DHT22;38507;53.132;6.394;2022-07-29T08:15:46;18.10;99.90
52209;DHT22;38507;53.132;6.394;2022-07-29T08:18:13;18.30;99.90
52209;DHT22;38507;53.132;6.394;2022-07-29T08:20:38;18.30;99.90
52209;DHT22;38507;53.132;6.394;2022-07-29T08:23:06;18.30;99.90
52209;DHT22;38507;53.132;6.394;2022-07-29T08:25:32;18.30;99.90
52209;DHT22;38507;53.132;6.394;2022-07-29T08:27:58;18.30;99.90
52209;DHT22;38507;53.132;6.394;2022-07-29T08:30:24;18.30;99.90
52209;DHT22;38507;53.132;6.394;2022-07-29T08:32:50;18.30;99.90
52209;DHT22;38507;53.132;6.394;2022-07-29T08:35:19;18.30;99.90
52209;DHT22;38507;53.132;6.394;2022-07-29T08:37:44;18.30;99.90
52209;DHT22;38507;53.132;6.394;2022-07-29T08:40:11;18.30;99.90
52209;DHT22;38507;53.132;6.394;2022-07-29T08:42:36;18.50;99.90
52209;DHT22;38507;53.132;6.394;2022-07-29T08:45:03;18.50;99.90
52209;DHT22;38507;53.132;6.394;2022-07-29T08:47:29;18.50;99.90
52209;DHT22;38507;53.132;6.394;2022-07-29T08:49:55;18.60;99.90
52209;DHT22;38507;53.132;6.394;2022-07-29T08:52:23;18.60;99.90
52209;DHT22;38507;53.132;6.394;2022-07-29T08:54:52;18.80;99.90
52209;DHT22;38507;53.132;6.394;2022-07-29T08:57:19;18.90;99.90
52209;DHT22;38507;53.132;6.394;2022-07-29T08:59:46;19.00;99.90
52209;DHT22;38507;53.132;6.394;2022-07-29T09:02:19;19.20;99.90
52209;DHT22;38507;53.132;6.394;2022-07-29T09:04:45;19.30;99.90
52209;DHT22;38507;53.132;6.394;2022-07-29T09:07:18;19.30;99.90
52209;DHT22;38507;53.132;6.394;2022-07-29T09:09:44;19.50;99.90
52209;DHT22;38507;53.132;6.394;2022-07-29T09:12:10;19.70;99.90
52209;DHT22;38507;53.132;6.394;2022-07-29T09:14:39;19.80;99.90
52209;DHT22;38507;53.132;6.394;2022-07-29T09:17:06;19.90;99.90
52209;DHT22;38507;53.132;6.394;2022-07-29T09:19:33;20.10;99.90
52209;DHT22;38507;53.132;6.394;2022-07-29T09:22:02;20.10;99.90
52209;DHT22;38507;53.132;6.394;2022-07-29T09:24:42;20.30;99.90
52209;DHT22;38507;53.132;6.394;2022-07-29T09:27:11;20.30;99.90
52209;DHT22;38507;53.132;6.394;2022-07-29T09:29:37;20.50;99.90
52209;DHT22;38507;53.132;6.394;2022-07-29T09:32:08;20.50;99.90
52209;DHT22;38507;53.132;6.394;2022-07-29T09:34:35;20.60;99.90
52209;DHT22;38507;53.132;6.394;2022-07-29T09:37:00;20.80;99.90
52209;DHT22;38507;53.132;6.394;2022-07-29T09:39:29;20.80;99.90
52209;DHT22;38507;53.132;6.394;2022-07-29T09:41:56;20.80;99.90
52209;DHT22;38507;53.132;6.394;2022-07-29T09:44:22;20.80;99.90
52209;DHT22;38507;53.132;6.394;2022-07-29T09:47:01;20.70;99.90
52209;DHT22;38507;53.132;6.394;2022-07-29T09:49:57;20.70;99.90
52209;DHT22;38507;53.132;6.394;2022-07-29T09:52:24;20.60;99.90
52209;DHT22;38507;53.132;6.394;2022-07-29T09:54:49;20.60;99.90
52209;DHT22;38507;53.132;6.394;2022-07-29T09:57:41;20.70;99.90
52209;DHT22;38507;53.132;6.394;2022-07-29T10:00:13;20.70;99.90
52209;DHT22;38507;53.132;6.394;2022-07-29T10:02:41;20.70;99.90
52209;DHT22;38507;53.132;6.394;2022-07-29T10:05:17;20.60;99.90
52209;DHT22;38507;53.132;6.394;2022-07-29T10:07:48;20.50;99.90
52209;DHT22;38507;53.132;6.394;2022-07-29T10:10:23;20.60;99.90
52209;DHT22;38507;53.132;6.394;2022-07-29T10:13:03;20.60;99.90
52209;DHT22;38507;53.132;6.394;2022-07-29T10:15:33;20.80;99.90
52209;DHT22;38507;53.132;6.394;2022-07-29T10:18:02;20.80;99.90
52209;DHT22;38507;53.132;6.394;2022-07-29T10:20:28;20.90;99.90
52209;DHT22;38507;53.132;6.394;2022-07-29T10:22:54;21.00;99.90
52209;DHT22;38507;53.132;6.394;2022-07-29T10:25:21;20.90;99.90
52209;DHT22;38507;53.132;6.394;2022-07-29T10:27:48;20.90;99.90
52209;DHT22;38507;53.132;6.394;2022-07-29T10:30:15;20.90;99.90
52209;DHT22;38507;53.132;6.394;2022-07-29T10:40:47;21.00;99.90
52209;DHT22;38507;53.132;6.394;2022-07-29T10:43:37;21.00;99.90
52209;DHT22;38507;53.132;6.394;2022-07-29T10:46:06;21.10;99.90
52209;DHT22;38507;53.132;6.394;2022-07-29T10:48:32;21.20;99.90
52209;DHT22;38507;53.132;6.394;2022-07-29T10:51:03;21.20;99.90
52209;DHT22;38507;53.132;6.394;2022-07-29T10:53:51;21.30;99.90
52209;DHT22;38507;53.132;6.394;2022-07-29T10:56:28;21.40;99.90
52209;DHT22;38507;53.132;6.394;2022-07-29T11:01:56;21.60;99.90
52209;DHT22;38507;53.132;6.394;2022-07-29T11:07:10;21.70;99.90
52209;DHT22;38507;53.132;6.394;2022-07-29T11:09:35;21.80;99.90
52209;DHT22;38507;53.132;6.394;2022-07-29T11:12:01;21.90;99.90
52209;DHT22;38507;53.132;6.394;2022-07-29T11:14:56;22.00;99.90
52209;DHT22;38507;53.132;6.394;2022-07-29T11:17:21;22.00;99.90
52209;DHT22;38507;53.132;6.394;2022-07-29T11:19:47;22.20;99.90
52209;DHT22;38507;53.132;6.394;2022-07-29T11:22:35;22.30;99.90
52209;DHT22;38507;53.132;6.394;2022-07-29T11:25:13;22.30;99.90
52209;DHT22;38507;53.132;6.394;2022-07-29T11:27:39;22.40;99.90
52209;DHT22;38507;53.132;6.394;2022-07-29T11:30:05;22.50;99.90
52209;DHT22;38507;53.132;6.394;2022-07-29T11:32:42;22.50;99.90
52209;DHT22;38507;53.132;6.394;2022-07-29T11:35:17;22.50;99.90
52209;DHT22;38507;53.132;6.394;2022-07-29T11:37:46;22.60;99.90
52209;DHT22;38507;53.132;6.394;2022-07-29T11:40:14;22.60;99.90
52209;DHT22;38507;53.132;6.394;2022-07-29T11:42:42;22.60;99.90
52209;DHT22;38507;53.132;6.394;2022-07-29T11:50:12;22.60;99.90
52209;DHT22;38507;53.132;6.394;2022-07-29T11:52:42;22.60;99.90
52209;DHT22;38507;53.132;6.394;2022-07-29T11:55:12;22.60;99.90
52209;DHT22;38507;53.132;6.394;2022-07-29T11:57:47;22.80;99.90
52209;DHT22;38507;53.132;6.394;2022-07-29T12:00:24;22.80;99.90
52209;DHT22;38507;53.132;6.394;2022-07-29T12:02:51;22.90;99.90
52209;DHT22;38507;53.132;6.394;2022-07-29T12:05:17;23.10;99.90
52209;DHT22;38507;53.132;6.394;2022-07-29T12:07:43;23.20;99.90
52209;DHT22;38507;53.132;6.394;2022-07-29T12:10:09;23.40;99.90
52209;DHT22;38507;53.132;6.394;2022-07-29T12:12:35;23.60;99.90
52209;DHT22;38507;53.132;6.394;2022-07-29T12:15:14;23.70;99.90
52209;DHT22;38507;53.132;6.394;2022-07-29T12:17:41;24.00;99.90
52209;DHT22;38507;53.132;6.394;2022-07-29T12:20:07;24.30;99.90
52209;DHT22;38507;53.132;6.394;2022-07-29T12:22:34;24.70;99.90
52209;DHT22;38507;53.132;6.394;2022-07-29T12:25:08;25.00;99.90
52209;DHT22;38507;53.132;6.394;2022-07-29T12:27:35;25.30;99.90
52209;DHT22;38507;53.132;6.394;2022-07-29T12:30:07;25.50;99.90
52209;DHT22;38507;53.132;6.394;2022-07-29T12:32:39;25.70;99.90
52209;DHT22;38507;53.132;6.394;2022-07-29T12:35:06;25.80;99.70
52209;DHT22;38507;53.132;6.394;2022-07-29T12:37:34;25.70;99.60
52209;DHT22;38507;53.132;6.394;2022-07-29T12:40:01;25.70;99.50
52209;DHT22;38507;53.132;6.394;2022-07-29T12:42:27;25.70;99.20
52209;DHT22;38507;53.132;6.394;2022-07-29T12:44:53;25.70;99.20
52209;DHT22;38507;53.132;6.394;2022-07-29T12:47:19;25.90;99.10
52209;DHT22;38507;53.132;6.394;2022-07-29T12:49:45;26.10;99.20
52209;DHT22;38507;53.132;6.394;2022-07-29T12:52:30;26.30;99.20
52209;DHT22;38507;53.132;6.394;2022-07-29T12:54:56;26.60;98.20
52209;DHT22;38507;53.132;6.394;2022-07-29T12:57:23;26.80;98.90
52209;DHT22;38507;53.132;6.394;2022-07-29T13:00:08;26.90;98.80
52209;DHT22;38507;53.132;6.394;2022-07-29T13:02:36;27.00;96.50
52209;DHT22;38507;53.132;6.394;2022-07-29T13:05:03;27.20;97.20
52209;DHT22;38507;53.132;6.394;2022-07-29T13:07:31;27.30;96.90
52209;DHT22;38507;53.132;6.394;2022-07-29T13:10:14;27.50;96.50
52209;DHT22;38507;53.132;6.394;2022-07-29T13:13:04;27.50;93.80
52209;DHT22;38507;53.132;6.394;2022-07-29T13:15:30;27.60;95.60
52209;DHT22;38507;53.132;6.394;2022-07-29T13:17:56;27.50;95.90
52209;DHT22;38507;53.132;6.394;2022-07-29T13:20:28;27.60;95.60
52209;DHT22;38507;53.132;6.394;2022-07-29T13:22:58;27.60;94.00
52209;DHT22;38507;53.132;6.394;2022-07-29T13:25:32;27.60;95.40
52209;DHT22;38507;53.132;6.394;2022-07-29T13:27:59;27.80;94.70
52209;DHT22;38507;53.132;6.394;2022-07-29T13:30:25;28.00;95.20
52209;DHT22;38507;53.132;6.394;2022-07-29T13:32:52;28.10;95.20
52209;DHT22;38507;53.132;6.394;2022-07-29T13:35:20;28.30;94.90
52209;DHT22;38507;53.132;6.394;2022-07-29T13:37:46;28.40;93.70
52209;DHT22;38507;53.132;6.394;2022-07-29T13:40:15;28.40;94.70
52209;DHT22;38507;53.132;6.394;2022-07-29T13:42:50;28.50;94.50
52209;DHT22;38507;53.132;6.394;2022-07-29T13:45:18;28.60;93.40
52209;DHT22;38507;53.132;6.394;2022-07-29T13:47:44;28.70;92.60
52209;DHT22;38507;53.132;6.394;2022-07-29T13:50:10;28.80;94.20
52209;DHT22;38507;53.132;6.394;2022-07-29T13:52:36;28.80;94.10
52209;DHT22;38507;53.132;6.394;2022-07-29T13:55:03;28.70;93.60
52209;DHT22;38507;53.132;6.394;2022-07-29T13:57:29;28.50;93.50
52209;DHT22;38507;53.132;6.394;2022-07-29T13:59:55;28.40;93.30
52209;DHT22;38507;53.132;6.394;2022-07-29T14:02:21;28.30;92.50
52209;DHT22;38507;53.132;6.394;2022-07-29T14:04:47;28.30;92.80
52209;DHT22;38507;53.132;6.394;2022-07-29T14:07:13;28.30;92.70
52209;DHT22;38507;53.132;6.394;2022-07-29T14:09:38;28.30;92.60
52209;DHT22;38507;53.132;6.394;2022-07-29T14:12:04;28.40;92.50
52209;DHT22;38507;53.132;6.394;2022-07-29T14:14:30;28.40;92.20
52209;DHT22;38507;53.132;6.394;2022-07-29T14:16:58;28.30;91.90
52209;DHT22;38507;53.132;6.394;2022-07-29T14:19:24;28.20;91.90
52209;DHT22;38507;53.132;6.394;2022-07-29T14:21:50;28.20;91.60
52209;DHT22;38507;53.132;6.394;2022-07-29T14:24:16;28.20;91.50
52209;DHT22;38507;53.132;6.394;2022-07-29T14:26:41;28.20;91.90
52209;DHT22;38507;53.132;6.394;2022-07-29T14:29:07;28.20;91.60
52209;DHT22;38507;53.132;6.394;2022-07-29T14:31:33;28.10;91.80
52209;DHT22;38507;53.132;6.394;2022-07-29T14:33:58;28.10;91.80
52209;DHT22;38507;53.132;6.394;2022-07-29T14:36:24;28.00;91.60
52209;DHT22;38507;53.132;6.394;2022-07-29T14:38:50;27.80;91.50
52209;DHT22;38507;53.132;6.394;2022-07-29T14:41:15;27.80;91.50
52209;DHT22;38507;53.132;6.394;2022-07-29T14:43:41;27.70;91.50
52209;DHT22;38507;53.132;6.394;2022-07-29T14:46:06;27.70;91.40
52209;DHT22;38507;53.132;6.394;2022-07-29T14:48:33;27.70;91.50
52209;DHT22;38507;53.132;6.394;2022-07-29T14:50:59;27.60;91.40
52209;DHT22;38507;53.132;6.394;2022-07-29T14:53:24;27.60;91.50
52209;DHT22;38507;53.132;6.394;2022-07-29T14:55:50;27.50;91.30
52209;DHT22;38507;53.132;6.394;2022-07-29T14:58:16;27.70;91.30
52209;DHT22;38507;53.132;6.394;2022-07-29T15:00:41;27.70;90.90
52209;DHT22;38507;53.132;6.394;2022-07-29T15:03:07;27.80;91.10
52209;DHT22;38507;53.132;6.394;2022-07-29T15:05:35;27.90;91.30
52209;DHT22;38507;53.132;6.394;2022-07-29T15:08:02;28.00;90.90
52209;DHT22;38507;53.132;6.394;2022-07-29T15:10:27;28.10;90.80
52209;DHT22;38507;53.132;6.394;2022-07-29T15:12:54;28.20;90.30
52209;DHT22;38507;53.132;6.394;2022-07-29T15:15:20;28.30;90.50
52209;DHT22;38507;53.132;6.394;2022-07-29T15:17:46;28.40;90.30
52209;DHT22;38507;53.132;6.394;2022-07-29T15:20:11;28.30;90.10
52209;DHT22;38507;53.132;6.394;2022-07-29T15:22:37;28.10;89.90
52209;DHT22;38507;53.132;6.394;2022-07-29T15:25:04;27.90;89.50
52209;DHT22;38507;53.132;6.394;2022-07-29T15:27:30;27.70;89.00
52209;DHT22;38507;53.132;6.394;2022-07-29T15:29:56;27.60;89.30
52209;DHT22;38507;53.132;6.394;2022-07-29T15:32:22;27.70;89.10
52209;DHT22;38507;53.132;6.394;2022-07-29T15:34:47;27.80;89.40
52209;DHT22;38507;53.132;6.394;2022-07-29T15:37:13;28.00;90.30
52209;DHT22;38507;53.132;6.394;2022-07-29T15:39:39;28.00;88.70
52209;DHT22;38507;53.132;6.394;2022-07-29T15:42:04;28.20;90.00
52209;DHT22;38507;53.132;6.394;2022-07-29T15:44:30;28.30;89.20
52209;DHT22;38507;53.132;6.394;2022-07-29T15:46:56;28.40;89.00
52209;DHT22;38507;53.132;6.394;2022-07-29T15:49:33;28.60;89.20
52209;DHT22;38507;53.132;6.394;2022-07-29T15:51:59;28.70;88.70
52209;DHT22;38507;53.132;6.394;2022-07-29T15:54:29;28.70;88.40
52209;DHT22;38507;53.132;6.394;2022-07-29T15:56:55;28.70;87.80
52209;DHT22;38507;53.132;6.394;2022-07-29T15:59:21;28.90;87.70
52209;DHT22;38507;53.132;6.394;2022-07-29T16:01:48;28.80;86.20